ENTO/TRF METAR and TAF weather

Enter ICAO airport designator
Station Type Date Time Source
ENTO METAR 2021/03/01 10:50 UTC NOAA

ENTO 011050Z 25006KT CAVOK 08/M03 Q1029 NOSIG


Station Type Date Time Source
ENTO Decoded METAR 2021/03/01 10:50 UTC NOAA

Torp, Norway (ENTO) 59-12N 010-16E 88M
Mar 01, 2021 - 05:50 AM EST / 2021.03.01 1050 UTC
Wind: from the WSW (250 degrees) at 7 MPH (6 KT):0
Visibility: greater than 7 mile(s):0
Temperature: 46 F (8 C)
Dew Point: 26 F (-3 C)
Relative Humidity: 45%
Pressure (altimeter): 30.39 in. Hg (1029 hPa)
ob: ENTO 011050Z 25006KT CAVOK 08/M03 Q1029 NOSIG
cycle: 11

Station Type Date Time Source
ENTO TAF 2021/03/01 06:57 UTC NOAA

TAF ENTO 010500Z 0106/0206 30005KT CAVOK

Example: see airport list